Private Wetterstation Wechselburg
Wetterdaten: Freitag, 29.01.2016
Datum Zeit Temp. +2m Bodentemp. Temp.+5cm Temp. Wind Windchill X Diff Temp. Feuchte +2m Feuchte +5cm Sonnenschein Luftdruck Regen Wind Richtung Richtung Sonnenschein Taupunkt Windchill Windben
29.01.2016 00:00 -1,3 C 22,3 C -0,1 C -1,0 C -1,0 C 0,3 C 85 % 90 % 0 % 1027,1 hPa 0,0 l/m 0,0 km/h (0 Bft) O-NO 67 0 min -3,5 C -1,0 C 0,0 km/h (0 Bft)
29.01.2016 00:05 -1,3 C 22,3 C -0,1 C -0,9 C -0,9 C 0,4 C 84 % 90 % 0 % 1027,1 hPa 0,0 l/m 0,0 km/h (0 Bft) O-NO 67 0 min -3,6 C -0,9 C 0,0 km/h (0 Bft)
29.01.2016 00:10 -1,3 C 22,3 C -0,1 C -0,7 C -0,7 C 0,6 C 85 % 90 % 0 % 1027,1 hPa 0,0 l/m 0,0 km/h (0 Bft) O-NO 67 0 min -3,5 C -0,7 C 0,0 km/h (0 Bft)
29.01.2016 00:15 -1,3 C 22,3 C -0,1 C -0,8 C -0,8 C 0,5 C 85 % 90 % 0 % 1027,1 hPa 0,0 l/m 0,0 km/h (0 Bft) O-NO 67 0 min -3,5 C -0,8 C 0,0 km/h (0 Bft)
29.01.2016 00:20 -1,3 C 22,3 C -0,1 C -0,7 C -0,7 C 0,6 C 85 % 90 % 0 % 1027,1 hPa 0,0 l/m 0,0 km/h (0 Bft) O-NO 67 0 min -3,5 C -0,7 C 0,0 km/h (0 Bft)
29.01.2016 00:25 -1,3 C 22,2 C -0,1 C -0,6 C -0,6 C 0,7 C 85 % 90 % 0 % 1027,1 hPa 0,0 l/m 0,0 km/h (0 Bft) S-SW 202 0 min -3,5 C -0,6 C 0,0 km/h (0 Bft)
29.01.2016 00:30 -1,2 C 22,2 C 0,1 C -0,4 C -0,4 C 0,8 C 86 % 90 % 0 % 1027,1 hPa 0,0 l/m 0,0 km/h (0 Bft) SW 225 0 min -3,2 C -0,4 C 0,0 km/h (0 Bft)
29.01.2016 00:35 -1,1 C 22,2 C 0,1 C -0,3 C -0,3 C 0,8 C 86 % 90 % 0 % 1027,1 hPa 0,0 l/m 0,0 km/h (0 Bft) NO 45 0 min -3,1 C -0,3 C 0,0 km/h (0 Bft)
29.01.2016 00:40 -0,9 C 22,1 C 0,3 C -0,1 C -0,1 C 0,8 C 86 % 90 % 0 % 1027,1 hPa 0,0 l/m 0,0 km/h (0 Bft) O 90 0 min -2,9 C -0,1 C 0,0 km/h (0 Bft)
29.01.2016 00:45 -0,8 C 22,0 C 0,3 C 0,0 C 0,0 C 0,8 C 86 % 90 % 0 % 1027,1 hPa 0,0 l/m 0,0 km/h (0 Bft) O-SO 112 0 min -2,8 C 0,0 C 0,0 km/h (0 Bft)
29.01.2016 00:50 -0,7 C 22,0 C 0,4 C 0,1 C 0,1 C 0,8 C 86 % 90 % 0 % 1026,4 hPa 0,0 l/m 0,0 km/h (0 Bft) NO 45 0 min -2,7 C 0,1 C 0,0 km/h (0 Bft)
29.01.2016 00:55 -0,7 C 22,0 C 0,5 C 0,1 C 0,1 C 0,8 C 86 % 90 % 0 % 1026,4 hPa 0,0 l/m 0,0 km/h (0 Bft) O-SO 112 0 min -2,7 C 0,1 C 0,0 km/h (0 Bft)
29.01.2016 01:00 -0,5 C 22,0 C 0,4 C 0,2 C 0,2 C 0,7 C 86 % 90 % 0 % 1026,4 hPa 0,0 l/m 0,0 km/h (0 Bft) O-NO 67 0 min -2,5 C 0,2 C 0,0 km/h (0 Bft)
29.01.2016 01:05 -0,5 C 21,9 C 0,5 C 0,2 C 0,2 C 0,7 C 86 % 90 % 0 % 1026,4 hPa 0,0 l/m 0,0 km/h (0 Bft) W-SW 247 0 min -2,5 C 0,2 C 0,0 km/h (0 Bft)
29.01.2016 01:10 -0,5 C 21,9 C 0,7 C 0,2 C 0,2 C 0,7 C 86 % 90 % 0 % 1026,4 hPa 0,0 l/m 0,0 km/h (0 Bft) O-SO 112 0 min -2,5 C 0,2 C 0,0 km/h (0 Bft)
29.01.2016 01:15 -0,4 C 21,9 C 0,7 C 0,2 C 0,2 C 0,6 C 86 % 90 % 0 % 1026,4 hPa 0,0 l/m 0,2 km/h (0 Bft) SW 225 0 min -2,4 C 0,2 C 1,9 km/h (1 Bft)
29.01.2016 01:20 -0,3 C 21,9 C 0,7 C 0,3 C 0,3 C 0,6 C 86 % 90 % 0 % 1026,4 hPa 0,0 l/m 0,3 km/h (0 Bft) N 360 0 min -2,3 C 0,3 C 4,2 km/h (1 Bft)
29.01.2016 01:25 -0,1 C 21,9 C 0,8 C 0,4 C 0,4 C 0,5 C 86 % 90 % 0 % 1026,4 hPa 0,0 l/m 0,3 km/h (0 Bft) O-SO 112 0 min -2,2 C 0,4 C 1,6 km/h (1 Bft)
29.01.2016 01:30 0,1 C 21,9 C 0,8 C 0,5 C 0,5 C 0,4 C 86 % 90 % 0 % 1026,6 hPa 0,0 l/m 0,3 km/h (0 Bft) O-SO 112 0 min -2,0 C 0,5 C 0,0 km/h (0 Bft)
29.01.2016 01:35 0,1 C 21,9 C 0,8 C 0,5 C 0,5 C 0,4 C 86 % 90 % 0 % 1026,6 hPa 0,0 l/m 0,2 km/h (0 Bft) O-SO 112 0 min -2,0 C 0,5 C 1,9 km/h (1 Bft)
29.01.2016 01:40 0,3 C 21,9 C 0,8 C 0,6 C 0,6 C 0,3 C 86 % 90 % 0 % 1026,6 hPa 0,0 l/m 0,5 km/h (0 Bft) NO 45 0 min -1,8 C 0,6 C 0,0 km/h (0 Bft)
29.01.2016 01:45 0,3 C 21,8 C 0,9 C 0,5 C 0,5 C 0,2 C 85 % 90 % 0 % 1026,6 hPa 0,0 l/m 0,5 km/h (0 Bft) SO 135 0 min -1,9 C 0,5 C 0,0 km/h (0 Bft)
29.01.2016 01:50 0,3 C 21,8 C 0,8 C 0,3 C 0,3 C 0,0 C 85 % 90 % 0 % 1026,6 hPa 0,0 l/m 0,0 km/h (0 Bft) O 90 0 min -1,9 C 0,3 C 0,0 km/h (0 Bft)
29.01.2016 01:55 0,3 C 21,8 C 0,7 C 0,3 C 0,2 C 0,0 C 85 % 90 % 0 % 1026,6 hPa 0,0 l/m 0,0 km/h (0 Bft) O-NO 67 0 min -1,9 C 0,2 C 0,0 km/h (0 Bft)
29.01.2016 02:00 0,2 C 21,8 C 0,4 C 0,2 C 0,2 C 0,0 C 85 % 89 % 0 % 1026,6 hPa 0,0 l/m 0,2 km/h (0 Bft) O-NO 67 0 min -2,0 C 0,2 C 0,0 km/h (0 Bft)
29.01.2016 02:05 0,2 C 21,8 C 0,4 C 0,2 C 0,2 C 0,0 C 85 % 89 % 0 % 1026,6 hPa 0,0 l/m 0,3 km/h (0 Bft) O-NO 67 0 min -2,0 C 0,2 C 0,0 km/h (0 Bft)
29.01.2016 02:10 0,1 C 21,8 C 0,3 C 0,2 C 0,2 C 0,1 C 85 % 90 % 0 % 1026,6 hPa 0,0 l/m 0,2 km/h (0 Bft) O 90 0 min -2,1 C 0,2 C 0,0 km/h (0 Bft)
29.01.2016 02:15 0,1 C 21,8 C 0,3 C 0,1 C 0,1 C 0,0 C 85 % 89 % 0 % 1026,6 hPa 0,0 l/m 0,0 km/h (0 Bft) O-NO 67 0 min -2,1 C 0,1 C 0,0 km/h (0 Bft)
29.01.2016 02:20 0,1 C 21,8 C 0,0 C 0,0 C -0,1 C 0,0 C 85 % 90 % 0 % 1026,6 hPa 0,0 l/m 0,0 km/h (0 Bft) S-SW 202 0 min -2,1 C -0,1 C 0,0 km/h (0 Bft)
29.01.2016 02:25 -0,1 C 21,8 C -0,1 C -0,2 C -0,3 C 0,0 C 84 % 90 % 0 % 1026,6 hPa 0,0 l/m 0,0 km/h (0 Bft) O 90 0 min -2,5 C -0,3 C 0,0 km/h (0 Bft)
29.01.2016 02:30 -0,1 C 21,8 C -0,1 C -0,2 C -0,4 C 0,0 C 84 % 90 % 0 % 1026,2 hPa 0,0 l/m 0,0 km/h (0 Bft) NO 45 0 min -2,5 C -0,4 C 0,0 km/h (0 Bft)
29.01.2016 02:35 -0,1 C 21,8 C -0,1 C -0,2 C -0,5 C 0,0 C 84 % 90 % 0 % 1026,2 hPa 0,0 l/m 0,0 km/h (0 Bft) O-NO 67 0 min -2,5 C -0,5 C 0,0 km/h (0 Bft)
29.01.2016 02:40 -0,1 C 21,8 C -0,3 C -0,3 C -0,7 C 0,0 C 84 % 90 % 0 % 1026,2 hPa 0,0 l/m 0,0 km/h (0 Bft) S-SO 157 0 min -2,5 C -0,7 C 0,0 km/h (0 Bft)
29.01.2016 02:45 -0,1 C 21,8 C -0,1 C -0,3 C -0,7 C 0,0 C 84 % 90 % 0 % 1026,2 hPa 0,0 l/m 0,5 km/h (0 Bft) SW 225 0 min -2,5 C -0,7 C 3,4 km/h (1 Bft)
29.01.2016 02:50 -0,1 C 21,8 C -0,2 C -0,3 C -0,6 C 0,0 C 84 % 90 % 0 % 1026,5 hPa 0,0 l/m 1,0 km/h (0 Bft) O-NO 67 0 min -2,5 C -0,6 C 0,0 km/h (0 Bft)
29.01.2016 02:55 -0,1 C 21,7 C -0,3 C -0,3 C -0,6 C 0,0 C 84 % 90 % 0 % 1026,5 hPa 0,0 l/m 0,8 km/h (0 Bft) SO 135 0 min -2,5 C -0,6 C 4,5 km/h (1 Bft)
29.01.2016 03:00 -0,3 C 21,7 C -0,4 C -0,4 C -0,7 C 0,0 C 84 % 90 % 0 % 1026,5 hPa 0,0 l/m 0,8 km/h (0 Bft) S-SW 202 0 min -2,7 C -0,7 C 4,8 km/h (1 Bft)
29.01.2016 03:05 -0,3 C 21,7 C -0,4 C -0,4 C -0,5 C 0,0 C 84 % 90 % 0 % 1026,5 hPa 0,0 l/m 1,4 km/h (1 Bft) S-SW 202 0 min -2,7 C -0,5 C 2,7 km/h (1 Bft)
29.01.2016 03:10 -0,1 C 21,7 C -0,1 C -0,2 C -0,3 C 0,0 C 85 % 90 % 0 % 1026,5 hPa 0,0 l/m 2,1 km/h (1 Bft) SW 225 0 min -2,3 C -0,3 C 2,6 km/h (1 Bft)
29.01.2016 03:15 -0,1 C 21,7 C -0,1 C -0,2 C -0,3 C 0,0 C 85 % 90 % 0 % 1026,5 hPa 0,0 l/m 1,9 km/h (1 Bft) SO 135 0 min -2,3 C -0,3 C 5,1 km/h (1 Bft)
29.01.2016 03:20 -0,1 C 21,7 C -0,4 C -0,2 C -0,3 C 0,0 C 85 % 90 % 0 % 1026,5 hPa 0,0 l/m 1,1 km/h (1 Bft) O-SO 112 0 min -2,3 C -0,3 C 0,0 km/h (0 Bft)
29.01.2016 03:25 -0,3 C 21,7 C -0,5 C -0,3 C -0,4 C 0,0 C 84 % 90 % 0 % 1026,5 hPa 0,0 l/m 0,6 km/h (0 Bft) O-SO 112 0 min -2,7 C -0,4 C 1,6 km/h (1 Bft)
29.01.2016 03:30 -0,3 C 21,8 C -0,5 C -0,4 C -0,7 C 0,0 C 84 % 90 % 0 % 1026,5 hPa 0,0 l/m 0,2 km/h (0 Bft) O-SO 112 0 min -2,7 C -0,7 C 0,0 km/h (0 Bft)
29.01.2016 03:35 -0,3 C 21,8 C -0,4 C -0,4 C -0,6 C 0,0 C 84 % 90 % 0 % 1026,5 hPa 0,0 l/m 0,3 km/h (0 Bft) O-SO 112 0 min -2,7 C -0,6 C 0,0 km/h (0 Bft)
29.01.2016 03:40 -0,4 C 21,8 C -0,3 C -0,5 C -0,7 C 0,0 C 84 % 90 % 0 % 1026,5 hPa 0,0 l/m 0,2 km/h (0 Bft) N-NW 337 0 min -2,8 C -0,7 C 0,0 km/h (0 Bft)
29.01.2016 03:45 -0,3 C 21,7 C -0,4 C -0,4 C -0,7 C 0,0 C 84 % 90 % 0 % 1026,5 hPa 0,0 l/m 0,3 km/h (0 Bft) S-SO 157 0 min -2,7 C -0,7 C 2,9 km/h (1 Bft)
29.01.2016 03:50 -0,4 C 21,7 C -0,1 C -0,4 C -0,4 C 0,0 C 85 % 91 % 0 % 1026,2 hPa 0,0 l/m 0,6 km/h (0 Bft) O 90 0 min -2,6 C -0,4 C 0,0 km/h (0 Bft)
29.01.2016 03:55 -0,3 C 21,6 C 0,1 C -0,3 C -0,4 C 0,0 C 85 % 91 % 0 % 1026,2 hPa 0,0 l/m 0,6 km/h (0 Bft) S 180 0 min -2,5 C -0,4 C 1,6 km/h (1 Bft)
29.01.2016 04:00 -0,5 C 21,6 C -0,1 C -0,5 C -0,5 C 0,0 C 85 % 90 % 0 % 1026,2 hPa 0,0 l/m 0,3 km/h (0 Bft) O 90 0 min -2,7 C -0,5 C 0,0 km/h (0 Bft)
29.01.2016 04:05 -0,5 C 21,7 C -0,1 C -0,5 C -0,6 C 0,0 C 85 % 90 % 0 % 1026,2 hPa 0,0 l/m 0,3 km/h (0 Bft) S 180 0 min -2,7 C -0,6 C 0,0 km/h (0 Bft)
29.01.2016 04:10 -0,5 C 21,7 C -0,1 C -0,5 C -0,6 C 0,0 C 85 % 90 % 0 % 1025,8 hPa 0,0 l/m 0,0 km/h (0 Bft) SO 135 0 min -2,7 C -0,6 C 0,0 km/h (0 Bft)
29.01.2016 04:15 -0,5 C 21,7 C -0,1 C -0,5 C -0,5 C 0,0 C 85 % 90 % 0 % 1025,8 hPa 0,0 l/m 0,0 km/h (0 Bft) SW 225 0 min -2,7 C -0,5 C 0,0 km/h (0 Bft)
29.01.2016 04:20 -0,5 C 21,7 C -0,1 C -0,4 C -0,4 C 0,1 C 85 % 90 % 0 % 1025,8 hPa 0,0 l/m 0,0 km/h (0 Bft) S-SW 202 0 min -2,7 C -0,4 C 0,0 km/h (0 Bft)
29.01.2016 04:25 -0,6 C 21,7 C -0,1 C -0,2 C -0,2 C 0,4 C 85 % 90 % 0 % 1025,8 hPa 0,0 l/m 0,6 km/h (0 Bft) S-SO 157 0 min -2,8 C -0,2 C 5,1 km/h (1 Bft)
29.01.2016 04:30 -0,5 C 21,5 C 0,3 C 0,0 C 0,0 C 0,5 C 85 % 90 % 0 % 1025,8 hPa 0,0 l/m 2,7 km/h (1 Bft) SW 225 0 min -2,7 C 0,0 C 4,2 km/h (1 Bft)
29.01.2016 04:35 -0,3 C 21,5 C 0,4 C -0,1 C -0,1 C 0,2 C 85 % 90 % 0 % 1025,8 hPa 0,0 l/m 3,2 km/h (1 Bft) S-SO 157 0 min -2,5 C -0,1 C 7,6 km/h (2 Bft)
29.01.2016 04:40 -0,1 C 21,5 C 0,7 C 0,7 C 0,7 C 0,8 C 86 % 90 % 0 % 1025,8 hPa 0,0 l/m 2,4 km/h (1 Bft) S-SW 202 0 min -2,2 C 0,7 C 0,0 km/h (0 Bft)
29.01.2016 04:45 -0,1 C 21,5 C 0,8 C 0,9 C 0,9 C 1,0 C 86 % 90 % 0 % 1025,8 hPa 0,0 l/m 2,1 km/h (1 Bft) SW 225 0 min -2,2 C 0,9 C 1,9 km/h (1 Bft)
29.01.2016 04:50 0,1 C 21,4 C 1,0 C 1,0 C 1,0 C 0,9 C 85 % 90 % 0 % 1025,7 hPa 0,0 l/m 1,0 km/h (0 Bft) S-SW 202 0 min -2,1 C 1,0 C 2,7 km/h (1 Bft)
29.01.2016 04:55 0,0 C 21,4 C 1,1 C 1,0 C 1,0 C 1,0 C 85 % 90 % 0 % 1025,7 hPa 0,0 l/m 0,6 km/h (0 Bft) S-SO 157 0 min -2,2 C 1,0 C 3,4 km/h (1 Bft)
29.01.2016 05:00 0,3 C 21,4 C 1,3 C 1,1 C 1,1 C 0,8 C 85 % 90 % 0 % 1025,7 hPa 0,0 l/m 0,6 km/h (0 Bft) SO 135 0 min -1,9 C 1,1 C 0,0 km/h (0 Bft)
29.01.2016 05:05 0,3 C 21,4 C 1,2 C 1,1 C 1,1 C 0,8 C 85 % 90 % 0 % 1025,7 hPa 0,0 l/m 0,5 km/h (0 Bft) W-SW 247 0 min -1,9 C 1,1 C 3,4 km/h (1 Bft)
29.01.2016 05:10 0,5 C 21,4 C 1,3 C 1,3 C 1,3 C 0,8 C 85 % 90 % 0 % 1026,1 hPa 0,0 l/m 1,0 km/h (0 Bft) S-SO 157 0 min -1,7 C 1,3 C 5,5 km/h (1 Bft)
29.01.2016 05:15 0,7 C 21,4 C 1,5 C 1,5 C 1,5 C 0,8 C 85 % 90 % 0 % 1026,1 hPa 0,0 l/m 1,9 km/h (1 Bft) S-SO 157 0 min -1,5 C 1,5 C 4,7 km/h (1 Bft)
29.01.2016 05:20 0,9 C 21,4 C 1,7 C 1,1 C 1,1 C 0,2 C 85 % 90 % 0 % 1026,1 hPa 0,0 l/m 4,2 km/h (1 Bft) S-SO 157 0 min -1,3 C 1,1 C 6,0 km/h (2 Bft)
29.01.2016 05:25 1,1 C 21,4 C 1,8 C 1,0 C 0,7 C 0,0 C 84 % 90 % 0 % 1026,1 hPa 0,0 l/m 5,1 km/h (1 Bft) S 180 0 min -1,3 C -0,8 C 10,0 km/h (2 Bft)
29.01.2016 05:30 1,5 C 21,4 C 2,0 C 1,4 C 1,1 C 0,0 C 83 % 90 % 0 % 1025,9 hPa 0,0 l/m 4,8 km/h (1 Bft) W-SW 247 0 min -1,1 C -0,2 C 5,0 km/h (1 Bft)
29.01.2016 05:35 1,5 C 21,4 C 2,0 C 1,8 C 1,8 C 0,3 C 83 % 89 % 0 % 1025,9 hPa 0,0 l/m 3,4 km/h (1 Bft) S 180 0 min -1,1 C 1,8 C 10,1 km/h (2 Bft)
29.01.2016 05:40 1,6 C 21,4 C 2,1 C 2,3 C 2,3 C 0,7 C 83 % 89 % 0 % 1025,9 hPa 0,0 l/m 2,3 km/h (1 Bft) W-SW 247 0 min -1,0 C 2,3 C 3,9 km/h (1 Bft)
29.01.2016 05:45 1,6 C 21,4 C 2,0 C 2,3 C 2,3 C 0,7 C 83 % 89 % 0 % 1025,9 hPa 0,0 l/m 2,3 km/h (1 Bft) NO 45 0 min -1,0 C 2,3 C 6,6 km/h (2 Bft)
29.01.2016 05:50 1,7 C 21,3 C 2,3 C 2,3 C 2,3 C 0,6 C 83 % 89 % 0 % 1026,1 hPa 0,0 l/m 2,1 km/h (1 Bft) W-SW 247 0 min -0,9 C 2,3 C 4,2 km/h (1 Bft)
29.01.2016 05:55 1,9 C 21,3 C 2,1 C 2,2 C 2,2 C 0,3 C 83 % 88 % 0 % 1026,1 hPa 0,0 l/m 2,1 km/h (1 Bft) S-SO 157 0 min -0,7 C 2,2 C 3,2 km/h (1 Bft)
29.01.2016 06:00 1,9 C 21,3 C 2,0 C 2,1 C 2,1 C 0,2 C 82 % 88 % 0 % 1026,1 hPa 0,0 l/m 2,1 km/h (1 Bft) NW 315 0 min -0,8 C 2,1 C 4,3 km/h (1 Bft)
29.01.2016 06:05 1,9 C 21,3 C 2,0 C 2,0 C 2,0 C 0,1 C 82 % 88 % 0 % 1026,1 hPa 0,0 l/m 2,3 km/h (1 Bft) S-SO 157 0 min -0,8 C 2,0 C 6,8 km/h (2 Bft)
29.01.2016 06:10 2,0 C 21,3 C 2,1 C 1,8 C 1,4 C 0,0 C 82 % 88 % 0 % 1026,2 hPa 0,0 l/m 3,5 km/h (1 Bft) S-SO 157 0 min -0,7 C 1,4 C 5,3 km/h (1 Bft)
29.01.2016 06:15 2,0 C 21,3 C 2,0 C 1,6 C 0,7 C 0,0 C 82 % 88 % 0 % 1026,2 hPa 0,0 l/m 4,8 km/h (1 Bft) S 180 0 min -0,7 C -0,7 C 6,6 km/h (2 Bft)
29.01.2016 06:20 2,1 C 21,3 C 2,0 C 1,7 C 0,8 C 0,0 C 81 % 88 % 0 % 1026,2 hPa 0,0 l/m 4,7 km/h (1 Bft) S-SO 157 0 min -0,8 C -0,5 C 5,0 km/h (1 Bft)
29.01.2016 06:25 2,0 C 21,3 C 2,0 C 1,6 C 0,8 C 0,0 C 81 % 88 % 0 % 1026,2 hPa 0,0 l/m 4,7 km/h (1 Bft) S 180 0 min -0,9 C -0,5 C 10,3 km/h (2 Bft)
29.01.2016 06:30 2,1 C 21,3 C 2,1 C 1,6 C 0,7 C 0,0 C 81 % 88 % 0 % 1026,4 hPa 0,0 l/m 5,1 km/h (1 Bft) S 180 0 min -0,8 C -0,8 C 7,6 km/h (2 Bft)
29.01.2016 06:35 2,1 C 21,3 C 2,0 C 1,6 C 0,7 C 0,0 C 81 % 88 % 0 % 1026,4 hPa 0,0 l/m 4,8 km/h (1 Bft) SW 225 0 min -0,8 C -0,7 C 11,7 km/h (2 Bft)
29.01.2016 06:40 2,1 C 21,3 C 2,0 C 1,8 C 1,3 C 0,0 C 81 % 88 % 0 % 1026,4 hPa 0,0 l/m 3,2 km/h (1 Bft) SO 135 0 min -0,8 C 1,3 C 6,3 km/h (2 Bft)
29.01.2016 06:45 2,0 C 21,3 C 1,9 C 1,9 C 1,7 C 0,0 C 81 % 88 % 0 % 1026,4 hPa 0,0 l/m 2,1 km/h (1 Bft) N-NW 337 0 min -0,9 C 1,7 C 1,9 km/h (1 Bft)
29.01.2016 06:50 2,0 C 21,3 C 1,9 C 1,8 C 1,4 C 0,0 C 81 % 88 % 0 % 1026,4 hPa 0,0 l/m 1,8 km/h (1 Bft) S 180 0 min -0,9 C 1,4 C 3,4 km/h (1 Bft)
29.01.2016 06:55 1,9 C 21,3 C 1,8 C 1,7 C 1,3 C 0,0 C 81 % 88 % 0 % 1026,4 hPa 0,0 l/m 2,1 km/h (1 Bft) W 270 0 min -1,0 C 1,3 C 4,2 km/h (1 Bft)
29.01.2016 07:00 1,9 C 21,3 C 1,8 C 1,7 C 1,3 C 0,0 C 81 % 88 % 0 % 1026,4 hPa 0,0 l/m 1,8 km/h (1 Bft) O 90 0 min -1,0 C 1,3 C 2,7 km/h (1 Bft)
29.01.2016 07:05 1,9 C 21,3 C 1,8 C 1,7 C 1,2 C 0,0 C 81 % 88 % 0 % 1026,4 hPa 0,0 l/m 1,3 km/h (1 Bft) N-NW 337 0 min -1,0 C 1,2 C 3,1 km/h (1 Bft)
29.01.2016 07:10 1,8 C 21,3 C 1,9 C 1,6 C 1,1 C 0,0 C 81 % 88 % 0 % 1026,4 hPa 0,0 l/m 1,0 km/h (0 Bft) O-NO 67 0 min -1,1 C 1,1 C 0,0 km/h (0 Bft)
29.01.2016 07:15 1,8 C 21,3 C 1,7 C 1,5 C 1,0 C 0,0 C 81 % 88 % 0 % 1026,4 hPa 0,0 l/m 1,0 km/h (0 Bft) W-SW 247 0 min -1,1 C 1,0 C 2,7 km/h (1 Bft)
29.01.2016 07:20 1,6 C 21,3 C 1,6 C 1,4 C 1,0 C 0,0 C 82 % 88 % 0 % 1026,4 hPa 0,0 l/m 2,4 km/h (1 Bft) W 270 0 min -1,1 C 1,0 C 5,8 km/h (2 Bft)
29.01.2016 07:25 1,6 C 21,3 C 1,5 C 1,3 C 0,6 C 0,0 C 82 % 88 % 0 % 1026,4 hPa 0,0 l/m 3,4 km/h (1 Bft) NW 315 0 min -1,1 C 0,6 C 0,0 km/h (0 Bft)
29.01.2016 07:30 1,6 C 21,3 C 1,5 C 1,4 C 1,1 C 0,0 C 82 % 88 % 0 % 1025,9 hPa 0,0 l/m 2,4 km/h (1 Bft) W-SW 247 0 min -1,1 C 1,1 C 2,4 km/h (1 Bft)
29.01.2016 07:35 1,6 C 21,3 C 1,7 C 1,4 C 1,0 C 0,0 C 82 % 88 % 0 % 1025,9 hPa 0,0 l/m 2,1 km/h (1 Bft) N-NO 22 0 min -1,1 C 1,0 C 4,3 km/h (1 Bft)
29.01.2016 07:40 1,6 C 21,2 C 1,7 C 1,4 C 0,9 C 0,0 C 82 % 89 % 0 % 1025,9 hPa 0,0 l/m 2,9 km/h (1 Bft) SW 225 0 min -1,1 C 0,9 C 4,0 km/h (1 Bft)
29.01.2016 07:45 1,6 C 21,2 C 1,7 C 1,2 C 0,3 C 0,0 C 82 % 89 % 0 % 1025,9 hPa 0,0 l/m 4,0 km/h (1 Bft) S-SO 157 0 min -1,1 C 0,3 C 5,0 km/h (1 Bft)
29.01.2016 07:50 1,7 C 21,2 C 1,8 C 1,2 C 0,1 C 0,0 C 82 % 89 % 0 % 1025,9 hPa 0,0 l/m 5,3 km/h (1 Bft) S 180 0 min -1,0 C -1,6 C 11,4 km/h (2 Bft)
29.01.2016 07:55 1,9 C 21,2 C 1,9 C 1,3 C 0,2 C 0,0 C 82 % 89 % 0 % 1025,9 hPa 0,0 l/m 5,5 km/h (1 Bft) N-NO 22 0 min -0,8 C -1,6 C 19,2 km/h (3 Bft)
29.01.2016 08:00 1,9 C 21,2 C 1,9 C 1,5 C 0,6 C 0,0 C 82 % 89 % 0 % 1025,9 hPa 0,0 l/m 5,3 km/h (1 Bft) W-SW 247 0 min -0,8 C -1,0 C 6,6 km/h (2 Bft)
29.01.2016 08:05 2,0 C 21,2 C 2,0 C 1,6 C 0,7 C 0,0 C 82 % 89 % 0 % 1025,9 hPa 0,0 l/m 4,8 km/h (1 Bft) SW 225 0 min -0,7 C -0,7 C 8,4 km/h (2 Bft)
29.01.2016 08:10 2,0 C 21,2 C 2,0 C 1,6 C 0,9 C 0,0 C 82 % 89 % 0 % 1026,2 hPa 0,0 l/m 4,7 km/h (1 Bft) N-NW 337 0 min -0,7 C -0,4 C 3,7 km/h (1 Bft)
29.01.2016 08:15 2,1 C 21,2 C 2,1 C 1,7 C 0,9 C 0,0 C 82 % 89 % 0 % 1026,2 hPa 0,0 l/m 4,8 km/h (1 Bft) S-SO 157 0 min -0,6 C -0,5 C 5,5 km/h (1 Bft)
29.01.2016 08:20 2,0 C 21,2 C 2,1 C 1,7 C 1,2 C 0,0 C 82 % 89 % 0 % 1026,2 hPa 0,0 l/m 4,5 km/h (1 Bft) S 180 0 min -0,7 C 1,2 C 4,2 km/h (1 Bft)
29.01.2016 08:25 2,1 C 21,2 C 2,3 C 1,9 C 1,4 C 0,0 C 82 % 89 % 0 % 1026,2 hPa 0,0 l/m 4,2 km/h (1 Bft) S 180 0 min -0,6 C 1,4 C 11,6 km/h (2 Bft)
29.01.2016 08:30 2,1 C 21,2 C 2,5 C 1,9 C 1,4 C 0,0 C 82 % 89 % 0 % 1025,6 hPa 0,0 l/m 4,5 km/h (1 Bft) W-SW 247 0 min -0,6 C 1,4 C 4,8 km/h (1 Bft)
29.01.2016 08:35 2,2 C 21,2 C 2,5 C 1,9 C 1,4 C 0,0 C 82 % 89 % 0 % 1025,6 hPa 0,0 l/m 4,5 km/h (1 Bft) W 270 0 min -0,5 C 1,4 C 8,0 km/h (2 Bft)
29.01.2016 08:40 2,4 C 21,2 C 2,6 C 2,1 C 1,6 C 0,0 C 82 % 88 % 0 % 1025,6 hPa 0,0 l/m 5,1 km/h (1 Bft) S 180 0 min -0,4 C 0,2 C 6,9 km/h (2 Bft)
29.01.2016 08:45 2,5 C 21,1 C 2,7 C 2,2 C 1,7 C 0,0 C 82 % 88 % 0 % 1025,6 hPa 0,0 l/m 5,6 km/h (1 Bft) S-SW 202 0 min -0,3 C 0,1 C 5,8 km/h (2 Bft)
29.01.2016 08:50 2,6 C 21,0 C 2,8 C 2,3 C 1,8 C 0,0 C 81 % 88 % 0 % 1026,0 hPa 0,0 l/m 5,3 km/h (1 Bft) N-NO 22 0 min -0,3 C 0,3 C 3,4 km/h (1 Bft)
29.01.2016 08:55 2,6 C 21,0 C 2,9 C 2,4 C 1,9 C 0,0 C 81 % 88 % 0 % 1026,0 hPa 0,0 l/m 5,6 km/h (1 Bft) S 180 0 min -0,3 C 0,3 C 3,5 km/h (1 Bft)
29.01.2016 09:00 2,7 C 21,0 C 3,0 C 2,6 C 2,4 C 0,0 C 81 % 87 % 0 % 1026,0 hPa 0,0 l/m 5,3 km/h (1 Bft) S 180 0 min -0,2 C 1,0 C 4,8 km/h (1 Bft)
29.01.2016 09:05 2,8 C 21,0 C 3,0 C 3,2 C 3,2 C 0,4 C 82 % 87 % 11 % 1026,0 hPa 0,0 l/m 4,2 km/h (1 Bft) NO 45 0 min 0,0 C 3,2 C 2,3 km/h (1 Bft)
29.01.2016 09:10 3,0 C 21,0 C 3,1 C 3,6 C 3,6 C 0,6 C 81 % 87 % 16 % 1025,9 hPa 0,0 l/m 4,3 km/h (1 Bft) S 180 0 min 0,1 C 3,6 C 6,4 km/h (2 Bft)
29.01.2016 09:15 3,1 C 21,0 C 3,3 C 3,6 C 3,6 C 0,5 C 81 % 87 % 13 % 1025,9 hPa 0,0 l/m 5,1 km/h (1 Bft) SO 135 0 min 0,2 C 2,5 C 5,8 km/h (2 Bft)
29.01.2016 09:20 3,2 C 21,0 C 3,2 C 3,2 C 3,1 C 0,0 C 81 % 87 % 0 % 1025,9 hPa 0,0 l/m 5,3 km/h (1 Bft) S-SO 157 0 min 0,3 C 1,8 C 8,4 km/h (2 Bft)
29.01.2016 09:25 3,2 C 21,0 C 3,2 C 3,2 C 3,2 C 0,0 C 80 % 87 % 0 % 1025,9 hPa 0,0 l/m 5,0 km/h (1 Bft) S-SO 157 0 min 0,1 C 2,0 C 8,7 km/h (2 Bft)
29.01.2016 09:30 3,5 C 21,0 C 3,3 C 3,4 C 3,3 C 0,0 C 80 % 87 % 0 % 1025,6 hPa 0,0 l/m 4,8 km/h (1 Bft) S-SO 157 0 min 0,4 C 2,2 C 3,9 km/h (1 Bft)
29.01.2016 09:35 3,5 C 21,0 C 3,3 C 3,4 C 3,3 C 0,0 C 80 % 87 % 0 % 1025,6 hPa 0,0 l/m 4,8 km/h (1 Bft) SW 225 0 min 0,4 C 2,2 C 3,4 km/h (1 Bft)
29.01.2016 09:40 3,7 C 21,0 C 3,5 C 3,7 C 3,6 C 0,0 C 80 % 86 % 0 % 1025,6 hPa 0,0 l/m 4,3 km/h (1 Bft) S 180 0 min 0,6 C 3,6 C 5,5 km/h (1 Bft)
29.01.2016 09:45 3,8 C 21,0 C 3,6 C 3,7 C 3,6 C 0,0 C 79 % 86 % 0 % 1025,6 hPa 0,0 l/m 4,8 km/h (1 Bft) S-SO 157 0 min 0,5 C 2,6 C 12,2 km/h (2 Bft)
29.01.2016 09:50 4,0 C 21,0 C 3,9 C 4,3 C 4,3 C 0,3 C 79 % 85 % 8 % 1026,1 hPa 0,0 l/m 5,1 km/h (1 Bft) SO 135 0 min 0,7 C 3,2 C 8,2 km/h (2 Bft)
29.01.2016 09:55 4,1 C 21,0 C 4,0 C 4,1 C 4,1 C 0,0 C 78 % 85 % 0 % 1026,1 hPa 0,0 l/m 6,0 km/h (2 Bft) S 180 0 min 0,6 C 2,7 C 5,1 km/h (1 Bft)
29.01.2016 10:00 4,3 C 21,0 C 4,1 C 4,2 C 4,1 C 0,0 C 78 % 84 % 0 % 1026,1 hPa 0,0 l/m 5,8 km/h (2 Bft) SW 225 0 min 0,8 C 2,8 C 14,2 km/h (3 Bft)
29.01.2016 10:05 4,4 C 21,0 C 4,1 C 4,3 C 4,2 C 0,0 C 78 % 84 % 0 % 1026,1 hPa 0,0 l/m 5,6 km/h (1 Bft) S 180 0 min 0,9 C 2,9 C 10,8 km/h (2 Bft)
29.01.2016 10:10 4,7 C 21,0 C 4,3 C 4,4 C 3,9 C 0,0 C 77 % 83 % 0 % 1026,1 hPa 0,0 l/m 6,4 km/h (2 Bft) W-SW 247 0 min 1,0 C 2,3 C 9,2 km/h (2 Bft)
29.01.2016 10:15 4,9 C 21,0 C 4,4 C 4,7 C 4,2 C 0,0 C 76 % 83 % 0 % 1026,1 hPa 0,0 l/m 6,3 km/h (2 Bft) SW 225 0 min 1,0 C 2,7 C 9,3 km/h (2 Bft)
29.01.2016 10:20 5,1 C 21,0 C 4,7 C 4,9 C 4,6 C 0,0 C 76 % 82 % 0 % 1026,1 hPa 0,0 l/m 6,6 km/h (2 Bft) O-NO 67 0 min 1,2 C 3,1 C 2,9 km/h (1 Bft)
29.01.2016 10:25 5,2 C 21,0 C 4,7 C 5,1 C 4,9 C 0,0 C 75 % 81 % 0 % 1026,1 hPa 0,0 l/m 6,9 km/h (2 Bft) O-SO 112 0 min 1,1 C 3,3 C 6,8 km/h (2 Bft)
29.01.2016 10:30 5,3 C 21,0 C 4,8 C 5,0 C 4,4 C 0,0 C 74 % 80 % 0 % 1025,4 hPa 0,0 l/m 7,4 km/h (2 Bft) SO 135 0 min 1,0 C 2,6 C 14,2 km/h (3 Bft)
29.01.2016 10:35 5,4 C 21,0 C 4,9 C 5,2 C 4,7 C 0,0 C 74 % 80 % 0 % 1025,4 hPa 0,0 l/m 7,6 km/h (2 Bft) SW 225 0 min 1,1 C 2,9 C 19,6 km/h (3 Bft)
29.01.2016 10:40 5,6 C 21,0 C 4,9 C 5,6 C 5,5 C 0,0 C 74 % 80 % 0 % 1025,4 hPa 0,0 l/m 6,9 km/h (2 Bft) S-SW 202 0 min 1,3 C 4,0 C 9,3 km/h (2 Bft)
29.01.2016 10:45 5,7 C 21,0 C 5,0 C 5,7 C 5,7 C 0,0 C 73 % 79 % 0 % 1025,4 hPa 0,0 l/m 7,2 km/h (2 Bft) W-SW 247 0 min 1,2 C 4,2 C 10,8 km/h (2 Bft)
29.01.2016 10:50 5,8 C 21,0 C 5,1 C 6,0 C 5,4 C 0,2 C 73 % 79 % 5 % 1025,7 hPa 0,0 l/m 8,0 km/h (2 Bft) W-SW 247 0 min 1,3 C 3,6 C 19,6 km/h (3 Bft)
29.01.2016 10:55 5,9 C 21,0 C 5,2 C 6,0 C 5,5 C 0,1 C 73 % 79 % 3 % 1025,7 hPa 0,0 l/m 7,7 km/h (2 Bft) SW 225 0 min 1,4 C 3,8 C 14,6 km/h (3 Bft)
29.01.2016 11:00 5,9 C 21,0 C 5,3 C 5,8 C 5,6 C 0,0 C 72 % 78 % 0 % 1025,7 hPa 0,0 l/m 7,1 km/h (2 Bft) SW 225 0 min 1,2 C 4,1 C 8,0 km/h (2 Bft)
29.01.2016 11:05 6,1 C 21,0 C 5,5 C 6,0 C 5,2 C 0,0 C 72 % 78 % 0 % 1025,7 hPa 0,0 l/m 7,9 km/h (2 Bft) W 270 0 min 1,4 C 3,4 C 16,9 km/h (3 Bft)
29.01.2016 11:10 6,1 C 21,0 C 5,5 C 6,0 C 5,5 C 0,0 C 71 % 78 % 0 % 1025,9 hPa 0,0 l/m 8,5 km/h (2 Bft) S 180 0 min 1,2 C 3,6 C 10,3 km/h (2 Bft)
29.01.2016 11:15 6,3 C 21,0 C 5,6 C 6,2 C 5,6 C 0,0 C 71 % 77 % 0 % 1025,9 hPa 0,0 l/m 8,9 km/h (2 Bft) S-SO 157 0 min 1,4 C 3,6 C 16,9 km/h (3 Bft)
29.01.2016 11:20 6,3 C 21,0 C 5,6 C 6,7 C 6,5 C 0,4 C 71 % 77 % 11 % 1025,9 hPa 0,0 l/m 8,9 km/h (2 Bft) W-SW 247 0 min 1,4 C 4,7 C 16,3 km/h (3 Bft)
29.01.2016 11:25 6,4 C 21,0 C 5,7 C 7,5 C 7,3 C 1,1 C 71 % 77 % 29 % 1025,9 hPa 0,0 l/m 8,4 km/h (2 Bft) W-SW 247 0 min 1,5 C 5,7 C 21,6 km/h (4 Bft)
29.01.2016 11:30 6,5 C 21,0 C 5,9 C 8,1 C 7,9 C 1,6 C 70 % 76 % 42 % 1025,9 hPa 0,0 l/m 8,7 km/h (2 Bft) NO 45 0 min 1,4 C 6,4 C 11,9 km/h (2 Bft)
29.01.2016 11:35 6,7 C 21,0 C 6,1 C 8,5 C 8,1 C 1,8 C 70 % 75 % 47 % 1025,9 hPa 0,0 l/m 9,2 km/h (2 Bft) N-NW 337 0 min 1,6 C 6,5 C 30,7 km/h (5 Bft)
29.01.2016 11:40 6,6 C 21,0 C 6,1 C 7,9 C 7,1 C 1,3 C 69 % 74 % 34 % 1025,9 hPa 0,0 l/m 8,7 km/h (2 Bft) W 270 0 min 1,3 C 5,4 C 20,3 km/h (4 Bft)
29.01.2016 11:45 6,7 C 21,0 C 6,1 C 7,3 C 6,6 C 0,6 C 68 % 74 % 16 % 1025,9 hPa 0,0 l/m 9,0 km/h (2 Bft) SO 135 0 min 1,2 C 4,8 C 12,9 km/h (3 Bft)
29.01.2016 11:50 6,8 C 21,0 C 6,3 C 6,9 C 6,1 C 0,1 C 68 % 74 % 3 % 1025,9 hPa 0,0 l/m 10,0 km/h (2 Bft) SW 225 0 min 1,3 C 4,0 C 19,2 km/h (3 Bft)
29.01.2016 11:55 6,9 C 21,0 C 6,3 C 7,0 C 6,7 C 0,1 C 69 % 74 % 3 % 1025,9 hPa 0,0 l/m 8,4 km/h (2 Bft) S-SO 157 0 min 1,6 C 5,0 C 9,8 km/h (2 Bft)
29.01.2016 12:00 7,1 C 21,0 C 6,4 C 7,2 C 6,8 C 0,1 C 68 % 73 % 3 % 1025,9 hPa 0,0 l/m 8,7 km/h (2 Bft) O 90 0 min 1,6 C 5,1 C 8,2 km/h (2 Bft)
29.01.2016 12:05 7,1 C 21,0 C 6,4 C 7,3 C 6,9 C 0,2 C 68 % 73 % 5 % 1025,9 hPa 0,0 l/m 8,0 km/h (2 Bft) O-SO 112 0 min 1,6 C 5,4 C 9,5 km/h (2 Bft)
29.01.2016 12:10 7,2 C 20,9 C 6,7 C 7,3 C 6,7 C 0,1 C 67 % 73 % 3 % 1024,6 hPa 0,0 l/m 8,9 km/h (2 Bft) NW 315 0 min 1,5 C 4,9 C 20,8 km/h (4 Bft)
29.01.2016 12:15 7,3 C 20,9 C 6,8 C 7,4 C 7,1 C 0,1 C 68 % 73 % 3 % 1024,6 hPa 0,0 l/m 8,4 km/h (2 Bft) SW 225 0 min 1,8 C 5,5 C 17,7 km/h (3 Bft)
29.01.2016 12:20 7,5 C 20,9 C 7,2 C 8,1 C 7,9 C 0,6 C 67 % 72 % 16 % 1024,6 hPa 0,0 l/m 9,0 km/h (2 Bft) W-SW 247 0 min 1,8 C 6,3 C 20,3 km/h (4 Bft)
29.01.2016 12:25 7,6 C 20,9 C 7,2 C 8,5 C 8,1 C 0,9 C 67 % 71 % 24 % 1024,6 hPa 0,0 l/m 9,8 km/h (2 Bft) W-SW 247 0 min 1,9 C 6,4 C 12,2 km/h (2 Bft)
29.01.2016 12:30 7,7 C 20,9 C 7,4 C 8,7 C 8,2 C 1,0 C 66 % 71 % 26 % 1024,7 hPa 0,0 l/m 10,6 km/h (2 Bft) SW 225 0 min 1,8 C 6,4 C 19,2 km/h (3 Bft)
29.01.2016 12:35 7,7 C 20,9 C 7,4 C 8,7 C 8,3 C 1,0 C 66 % 71 % 26 % 1024,7 hPa 0,0 l/m 9,3 km/h (2 Bft) S-SO 157 0 min 1,8 C 6,7 C 14,6 km/h (3 Bft)
29.01.2016 12:40 7,7 C 20,9 C 7,5 C 8,6 C 8,1 C 0,9 C 66 % 70 % 24 % 1024,7 hPa 0,0 l/m 9,8 km/h (2 Bft) SW 225 0 min 1,8 C 6,4 C 12,4 km/h (3 Bft)
29.01.2016 12:45 7,8 C 20,9 C 7,6 C 8,8 C 8,4 C 1,0 C 66 % 70 % 26 % 1024,7 hPa 0,0 l/m 10,3 km/h (2 Bft) SW 225 0 min 1,9 C 6,7 C 14,5 km/h (3 Bft)
29.01.2016 12:50 7,9 C 20,9 C 7,7 C 8,9 C 8,6 C 1,0 C 66 % 70 % 26 % 1024,7 hPa 0,0 l/m 9,0 km/h (2 Bft) SO 135 0 min 1,9 C 7,2 C 8,0 km/h (2 Bft)
29.01.2016 12:55 7,9 C 20,9 C 7,8 C 8,8 C 8,2 C 0,9 C 65 % 69 % 24 % 1024,7 hPa 0,0 l/m 10,1 km/h (2 Bft) W-SW 247 0 min 1,7 C 6,5 C 15,1 km/h (3 Bft)
29.01.2016 13:00 7,9 C 21,0 C 7,8 C 8,4 C 7,6 C 0,5 C 65 % 69 % 13 % 1024,7 hPa 0,0 l/m 10,9 km/h (2 Bft) W-SW 247 0 min 1,7 C 5,6 C 14,6 km/h (3 Bft)
29.01.2016 13:05 7,9 C 21,0 C 7,8 C 8,2 C 7,7 C 0,3 C 65 % 69 % 8 % 1024,7 hPa 0,0 l/m 9,8 km/h (2 Bft) W-SW 247 0 min 1,7 C 5,9 C 16,7 km/h (3 Bft)
29.01.2016 13:10 7,9 C 21,0 C 7,9 C 8,1 C 7,6 C 0,2 C 64 % 68 % 5 % 1024,8 hPa 0,0 l/m 10,0 km/h (2 Bft) SW 225 0 min 1,5 C 5,8 C 7,7 km/h (2 Bft)
29.01.2016 13:15 7,8 C 21,0 C 7,9 C 8,3 C 8,1 C 0,5 C 64 % 68 % 13 % 1024,8 hPa 0,0 l/m 8,2 km/h (2 Bft) W-NW 292 0 min 1,4 C 6,7 C 6,8 km/h (2 Bft)
29.01.2016 13:20 7,9 C 21,0 C 7,8 C 8,3 C 8,3 C 0,4 C 64 % 68 % 11 % 1024,8 hPa 0,0 l/m 6,9 km/h (2 Bft) S 180 0 min 1,5 C 7,3 C 9,3 km/h (2 Bft)
29.01.2016 13:25 7,9 C 21,0 C 7,9 C 8,3 C 8,3 C 0,4 C 64 % 68 % 11 % 1024,8 hPa 0,0 l/m 7,4 km/h (2 Bft) S-SW 202 0 min 1,5 C 7,1 C 8,9 km/h (2 Bft)
29.01.2016 13:30 8,1 C 21,0 C 8,0 C 8,3 C 8,3 C 0,2 C 63 % 68 % 5 % 1024,8 hPa 0,0 l/m 8,4 km/h (2 Bft) W 270 0 min 1,5 C 6,9 C 15,6 km/h (3 Bft)
29.01.2016 13:35 8,1 C 21,0 C 8,1 C 8,3 C 8,3 C 0,2 C 64 % 68 % 5 % 1024,8 hPa 0,0 l/m 8,5 km/h (2 Bft) SW 225 0 min 1,7 C 6,9 C 11,1 km/h (2 Bft)
29.01.2016 13:40 8,3 C 21,0 C 8,3 C 9,1 C 8,8 C 0,8 C 63 % 67 % 21 % 1024,8 hPa 0,0 l/m 9,5 km/h (2 Bft) O-NO 67 0 min 1,7 C 7,3 C 7,1 km/h (2 Bft)
29.01.2016 13:45 8,3 C 21,0 C 8,5 C 9,2 C 8,7 C 0,9 C 63 % 67 % 24 % 1024,8 hPa 0,0 l/m 10,1 km/h (2 Bft) S-SW 202 0 min 1,7 C 7,1 C 16,1 km/h (3 Bft)
29.01.2016 13:50 8,7 C 21,0 C 8,8 C 10,1 C 10,3 C 1,4 C 62 % 67 % 37 % 1024,8 hPa 0,0 l/m 9,3 km/h (2 Bft) W-SW 247 0 min 1,8 C 10,3 C 15,1 km/h (3 Bft)
29.01.2016 13:55 8,9 C 21,0 C 8,9 C 11,2 C 11,3 C 2,3 C 62 % 66 % 61 % 1024,8 hPa 0,0 l/m 9,2 km/h (2 Bft) O-NO 67 0 min 2,0 C 11,3 C 14,3 km/h (3 Bft)
29.01.2016 14:00 9,1 C 21,1 C 9,1 C 12,1 C 12,1 C 3,0 C 61 % 65 % 79 % 1024,8 hPa 0,0 l/m 9,7 km/h (2 Bft) W-SW 247 0 min 2,0 C 12,1 C 7,7 km/h (2 Bft)
29.01.2016 14:05 9,0 C 21,1 C 9,1 C 12,6 C 12,5 C 3,6 C 60 % 64 % 95 % 1024,8 hPa 0,0 l/m 9,7 km/h (2 Bft) S-SO 157 5 min 1,7 C 12,5 C 14,3 km/h (3 Bft)
29.01.2016 14:10 9,1 C 21,1 C 9,1 C 13,0 C 13,0 C 3,9 C 60 % 65 % 100 % 1024,4 hPa 0,0 l/m 8,9 km/h (2 Bft) W-SW 247 5 min 1,8 C 13,0 C 14,8 km/h (3 Bft)
29.01.2016 14:15 9,2 C 21,1 C 9,0 C 13,0 C 13,0 C 3,8 C 60 % 64 % 100 % 1024,4 hPa 0,0 l/m 8,7 km/h (2 Bft) SW 225 5 min 1,8 C 13,0 C 3,9 km/h (1 Bft)
29.01.2016 14:20 9,3 C 21,1 C 9,1 C 12,9 C 12,4 C 3,6 C 58 % 64 % 95 % 1024,4 hPa 0,0 l/m 11,1 km/h (2 Bft) S-SW 202 5 min 1,5 C 12,4 C 11,7 km/h (2 Bft)
29.01.2016 14:25 9,4 C 21,1 C 9,1 C 12,4 C 11,9 C 3,0 C 59 % 64 % 79 % 1024,4 hPa 0,0 l/m 11,3 km/h (2 Bft) NW 315 0 min 1,8 C 11,9 C 6,1 km/h (2 Bft)
29.01.2016 14:30 9,3 C 21,1 C 8,8 C 11,4 C 10,7 C 2,1 C 59 % 64 % 55 % 1023,6 hPa 0,0 l/m 10,1 km/h (2 Bft) W-SW 247 0 min 1,7 C 10,7 C 14,6 km/h (3 Bft)
29.01.2016 14:35 9,3 C 21,1 C 8,7 C 10,8 C 10,2 C 1,5 C 59 % 64 % 39 % 1023,6 hPa 0,0 l/m 10,8 km/h (2 Bft) W-SW 247 0 min 1,7 C 10,2 C 15,1 km/h (3 Bft)
29.01.2016 14:40 9,2 C 21,1 C 8,7 C 10,4 C 9,7 C 1,2 C 58 % 63 % 32 % 1023,6 hPa 0,0 l/m 13,8 km/h (3 Bft) SO 135 0 min 1,4 C 7,7 C 9,2 km/h (2 Bft)
29.01.2016 14:45 9,5 C 21,1 C 8,8 C 10,8 C 10,7 C 1,3 C 58 % 63 % 34 % 1023,6 hPa 0,0 l/m 11,9 km/h (2 Bft) N 360 0 min 1,7 C 10,7 C 37,0 km/h (5 Bft)
29.01.2016 14:50 9,4 C 21,1 C 8,8 C 11,7 C 11,9 C 2,3 C 57 % 62 % 61 % 1023,9 hPa 0,0 l/m 8,2 km/h (2 Bft) W-SW 247 0 min 1,3 C 11,9 C 20,0 km/h (4 Bft)
29.01.2016 14:55 9,5 C 21,1 C 8,8 C 12,1 C 11,8 C 2,6 C 57 % 63 % 68 % 1023,9 hPa 0,0 l/m 9,0 km/h (2 Bft) S-SO 157 0 min 1,4 C 11,8 C 19,0 km/h (3 Bft)
29.01.2016 15:00 9,5 C 21,1 C 8,8 C 11,8 C 11,2 C 2,3 C 56 % 62 % 61 % 1023,9 hPa 0,0 l/m 11,7 km/h (2 Bft) W-SW 247 0 min 1,2 C 11,2 C 14,6 km/h (3 Bft)
29.01.2016 15:05 9,5 C 21,1 C 8,8 C 11,8 C 11,6 C 2,3 C 57 % 63 % 61 % 1023,9 hPa 0,0 l/m 10,0 km/h (2 Bft) SW 225 0 min 1,4 C 11,6 C 8,7 km/h (2 Bft)
29.01.2016 15:10 9,5 C 21,2 C 8,7 C 11,6 C 11,6 C 2,1 C 57 % 63 % 55 % 1024,1 hPa 0,0 l/m 7,6 km/h (2 Bft) S 180 0 min 1,4 C 11,6 C 9,8 km/h (2 Bft)
29.01.2016 15:15 9,2 C 21,2 C 8,5 C 10,6 C 10,6 C 1,4 C 58 % 63 % 37 % 1024,1 hPa 0,0 l/m 6,8 km/h (2 Bft) SO 135 0 min 1,4 C 10,6 C 12,2 km/h (2 Bft)
29.01.2016 15:20 9,1 C 21,1 C 8,3 C 9,6 C 9,6 C 0,5 C 58 % 64 % 13 % 1024,1 hPa 0,0 l/m 6,1 km/h (2 Bft) W-SW 247 0 min 1,3 C 9,0 C 5,1 km/h (1 Bft)
29.01.2016 15:25 9,1 C 21,2 C 8,2 C 9,4 C 9,4 C 0,3 C 58 % 64 % 8 % 1024,1 hPa 0,0 l/m 6,4 km/h (2 Bft) W-SW 247 0 min 1,3 C 8,7 C 10,6 km/h (2 Bft)
29.01.2016 15:30 8,9 C 21,2 C 8,3 C 8,9 C 8,9 C 0,0 C 58 % 64 % 0 % 1023,7 hPa 0,0 l/m 6,9 km/h (2 Bft) SO 135 0 min 1,1 C 8,0 C 12,1 km/h (2 Bft)
29.01.2016 15:35 8,9 C 21,2 C 8,3 C 9,2 C 9,2 C 0,3 C 58 % 64 % 8 % 1023,7 hPa 0,0 l/m 7,2 km/h (2 Bft) S 180 0 min 1,1 C 8,2 C 11,4 km/h (2 Bft)
29.01.2016 15:40 8,9 C 21,2 C 8,4 C 9,4 C 9,4 C 0,5 C 58 % 64 % 13 % 1023,7 hPa 0,0 l/m 7,4 km/h (2 Bft) W 270 0 min 1,1 C 8,4 C 5,8 km/h (2 Bft)
29.01.2016 15:45 8,9 C 21,2 C 8,3 C 9,3 C 9,3 C 0,4 C 59 % 64 % 11 % 1023,7 hPa 0,0 l/m 6,8 km/h (2 Bft) W-SW 247 0 min 1,3 C 8,5 C 12,4 km/h (3 Bft)
29.01.2016 15:50 8,9 C 21,2 C 8,3 C 8,7 C 8,4 C 0,0 C 59 % 64 % 0 % 1023,7 hPa 0,0 l/m 7,2 km/h (2 Bft) S 180 0 min 1,3 C 7,3 C 18,7 km/h (3 Bft)
29.01.2016 15:55 8,8 C 21,2 C 8,1 C 8,6 C 8,1 C 0,0 C 59 % 64 % 0 % 1023,7 hPa 0,0 l/m 7,4 km/h (2 Bft) SW 225 0 min 1,2 C 6,9 C 15,8 km/h (3 Bft)
29.01.2016 16:00 8,7 C 21,2 C 8,1 C 8,4 C 7,9 C 0,0 C 59 % 64 % 0 % 1023,7 hPa 0,0 l/m 7,4 km/h (2 Bft) SO 135 0 min 1,1 C 6,7 C 10,1 km/h (2 Bft)
29.01.2016 16:05 8,7 C 21,2 C 8,1 C 8,4 C 7,9 C 0,0 C 58 % 64 % 0 % 1023,7 hPa 0,0 l/m 7,7 km/h (2 Bft) O-SO 112 0 min 0,9 C 6,6 C 10,9 km/h (2 Bft)
29.01.2016 16:10 8,8 C 21,2 C 8,3 C 8,6 C 8,2 C 0,0 C 59 % 64 % 0 % 1023,4 hPa 0,0 l/m 6,9 km/h (2 Bft) N-NW 337 0 min 1,2 C 7,2 C 2,7 km/h (1 Bft)
29.01.2016 16:15 8,7 C 21,2 C 8,3 C 8,5 C 8,2 C 0,0 C 59 % 64 % 0 % 1023,4 hPa 0,0 l/m 6,9 km/h (2 Bft) W 270 0 min 1,1 C 7,2 C 8,9 km/h (2 Bft)
29.01.2016 16:20 8,7 C 21,3 C 8,1 C 8,6 C 8,5 C 0,0 C 59 % 65 % 0 % 1023,4 hPa 0,0 l/m 6,3 km/h (2 Bft) SW 225 0 min 1,1 C 7,7 C 11,3 km/h (2 Bft)
29.01.2016 16:25 8,7 C 21,3 C 8,0 C 8,5 C 8,2 C 0,0 C 60 % 66 % 0 % 1023,4 hPa 0,0 l/m 7,2 km/h (2 Bft) S-SO 157 0 min 1,4 C 7,1 C 11,1 km/h (2 Bft)
29.01.2016 16:30 8,7 C 21,3 C 8,0 C 8,6 C 7,8 C 0,0 C 59 % 66 % 0 % 1023,5 hPa 0,0 l/m 8,7 km/h (2 Bft) SW 225 0 min 1,1 C 6,3 C 13,8 km/h (3 Bft)
29.01.2016 16:35 8,7 C 21,3 C 8,0 C 8,5 C 7,6 C 0,0 C 59 % 65 % 0 % 1023,5 hPa 0,0 l/m 9,5 km/h (2 Bft) W-SW 247 0 min 1,1 C 5,9 C 11,1 km/h (2 Bft)
29.01.2016 16:40 8,6 C 21,3 C 7,9 C 8,4 C 7,4 C 0,0 C 60 % 66 % 0 % 1023,5 hPa 0,0 l/m 8,2 km/h (2 Bft) S-SO 157 0 min 1,3 C 5,9 C 12,6 km/h (3 Bft)
29.01.2016 16:45 8,7 C 21,3 C 7,9 C 8,4 C 7,7 C 0,0 C 60 % 66 % 0 % 1023,5 hPa 0,0 l/m 6,3 km/h (2 Bft) N-NW 337 0 min 1,4 C 6,7 C 6,1 km/h (2 Bft)
29.01.2016 16:50 8,4 C 21,3 C 7,7 C 8,1 C 7,4 C 0,0 C 60 % 66 % 0 % 1023,4 hPa 0,0 l/m 6,0 km/h (2 Bft) SO 135 0 min 1,1 C 6,5 C 8,4 km/h (2 Bft)
29.01.2016 16:55 8,4 C 21,3 C 7,6 C 8,1 C 7,4 C 0,0 C 60 % 66 % 0 % 1023,4 hPa 0,0 l/m 6,0 km/h (2 Bft) SW 225 0 min 1,1 C 6,5 C 14,6 km/h (3 Bft)
29.01.2016 17:00 8,4 C 21,3 C 7,6 C 8,0 C 7,2 C 0,0 C 61 % 66 % 0 % 1023,4 hPa 0,0 l/m 6,3 km/h (2 Bft) W-NW 292 0 min 1,3 C 6,2 C 8,0 km/h (2 Bft)
29.01.2016 17:05 8,3 C 21,3 C 7,7 C 8,0 C 6,9 C 0,0 C 61 % 67 % 0 % 1023,4 hPa 0,0 l/m 8,5 km/h (2 Bft) W 270 0 min 1,2 C 5,2 C 12,6 km/h (3 Bft)
29.01.2016 17:10 8,4 C 21,3 C 7,7 C 8,0 C 6,5 C 0,0 C 61 % 67 % 0 % 1023,3 hPa 0,0 l/m 10,5 km/h (2 Bft) W-SW 247 0 min 1,3 C 4,4 C 20,0 km/h (4 Bft)
29.01.2016 17:15 8,4 C 21,3 C 7,9 C 8,0 C 6,6 C 0,0 C 61 % 66 % 0 % 1023,3 hPa 0,0 l/m 11,3 km/h (2 Bft) N-NW 337 0 min 1,3 C 4,3 C 14,6 km/h (3 Bft)
29.01.2016 17:20 8,4 C 21,3 C 7,7 C 8,0 C 6,8 C 0,0 C 61 % 67 % 0 % 1023,3 hPa 0,0 l/m 10,3 km/h (2 Bft) S 180 0 min 1,3 C 4,7 C 16,6 km/h (3 Bft)
29.01.2016 17:25 8,4 C 21,3 C 7,7 C 8,1 C 6,9 C 0,0 C 61 % 66 % 0 % 1023,3 hPa 0,0 l/m 9,7 km/h (2 Bft) SW 225 0 min 1,3 C 5,0 C 14,6 km/h (3 Bft)
29.01.2016 17:30 8,3 C 21,3 C 7,6 C 7,8 C 6,9 C 0,0 C 61 % 67 % 0 % 1023,3 hPa 0,0 l/m 9,7 km/h (2 Bft) W-SW 247 0 min 1,2 C 5,0 C 9,2 km/h (2 Bft)
29.01.2016 17:35 8,3 C 21,3 C 7,6 C 8,0 C 7,0 C 0,0 C 61 % 67 % 0 % 1023,3 hPa 0,0 l/m 8,5 km/h (2 Bft) O-SO 112 0 min 1,2 C 5,4 C 5,1 km/h (1 Bft)
29.01.2016 17:40 8,3 C 21,3 C 7,7 C 8,0 C 7,3 C 0,0 C 61 % 66 % 0 % 1023,3 hPa 0,0 l/m 7,2 km/h (2 Bft) O-SO 112 0 min 1,2 C 6,0 C 10,1 km/h (2 Bft)
29.01.2016 17:45 8,3 C 21,3 C 7,6 C 8,0 C 7,3 C 0,0 C 61 % 67 % 0 % 1023,3 hPa 0,0 l/m 7,1 km/h (2 Bft) NW 315 0 min 1,2 C 6,1 C 6,8 km/h (2 Bft)
29.01.2016 17:50 8,3 C 21,3 C 7,6 C 7,9 C 7,2 C 0,0 C 62 % 67 % 0 % 1023,3 hPa 0,0 l/m 7,2 km/h (2 Bft) S 180 0 min 1,5 C 5,9 C 11,3 km/h (2 Bft)
29.01.2016 17:55 8,3 C 21,3 C 7,6 C 8,0 C 7,3 C 0,0 C 62 % 67 % 0 % 1023,3 hPa 0,0 l/m 6,6 km/h (2 Bft) SW 225 0 min 1,5 C 6,2 C 11,4 km/h (2 Bft)
29.01.2016 18:00 8,3 C 21,4 C 7,6 C 8,0 C 7,0 C 0,0 C 62 % 67 % 0 % 1023,3 hPa 0,0 l/m 7,9 km/h (2 Bft) S 180 0 min 1,5 C 5,5 C 11,7 km/h (2 Bft)
29.01.2016 18:05 8,3 C 21,4 C 7,6 C 8,0 C 6,7 C 0,0 C 62 % 67 % 0 % 1023,3 hPa 0,0 l/m 9,2 km/h (2 Bft) O-SO 112 0 min 1,5 C 4,9 C 9,3 km/h (2 Bft)
29.01.2016 18:10 8,3 C 21,4 C 7,6 C 8,0 C 6,8 C 0,0 C 62 % 67 % 0 % 1023,1 hPa 0,0 l/m 9,0 km/h (2 Bft) SO 135 0 min 1,5 C 5,0 C 3,2 km/h (1 Bft)
29.01.2016 18:15 8,2 C 21,4 C 7,7 C 7,7 C 6,8 C 0,0 C 62 % 67 % 0 % 1023,1 hPa 0,0 l/m 8,7 km/h (2 Bft) SW 225 0 min 1,4 C 5,1 C 7,2 km/h (2 Bft)
29.01.2016 18:20 8,1 C 21,4 C 7,5 C 7,8 C 7,1 C 0,0 C 62 % 67 % 0 % 1023,1 hPa 0,0 l/m 7,2 km/h (2 Bft) NW 315 0 min 1,3 C 5,8 C 4,8 km/h (1 Bft)
29.01.2016 18:25 8,1 C 21,4 C 7,5 C 7,7 C 6,9 C 0,0 C 62 % 67 % 0 % 1023,1 hPa 0,0 l/m 7,6 km/h (2 Bft) W-SW 247 0 min 1,3 C 5,5 C 8,4 km/h (2 Bft)
29.01.2016 18:30 8,0 C 21,4 C 7,5 C 7,7 C 6,6 C 0,0 C 62 % 67 % 0 % 1023,4 hPa 0,0 l/m 9,2 km/h (2 Bft) S 180 0 min 1,2 C 4,7 C 12,2 km/h (2 Bft)
29.01.2016 18:35 8,0 C 21,4 C 7,5 C 7,7 C 6,4 C 0,0 C 62 % 68 % 0 % 1023,4 hPa 0,0 l/m 9,8 km/h (2 Bft) W-SW 247 0 min 1,2 C 4,4 C 10,9 km/h (2 Bft)
29.01.2016 18:40 8,0 C 21,4 C 7,3 C 7,6 C 6,3 C 0,0 C 62 % 68 % 0 % 1023,4 hPa 0,0 l/m 9,7 km/h (2 Bft) W 270 0 min 1,2 C 4,3 C 10,0 km/h (2 Bft)
29.01.2016 18:45 8,0 C 21,4 C 7,3 C 7,4 C 6,3 C 0,0 C 62 % 68 % 0 % 1023,4 hPa 0,0 l/m 9,7 km/h (2 Bft) W-SW 247 0 min 1,2 C 4,3 C 17,5 km/h (3 Bft)
29.01.2016 18:50 8,0 C 21,4 C 7,3 C 7,6 C 6,2 C 0,0 C 62 % 68 % 0 % 1023,9 hPa 0,0 l/m 10,0 km/h (2 Bft) O-SO 112 0 min 1,2 C 4,1 C 14,0 km/h (3 Bft)
29.01.2016 18:55 8,0 C 21,4 C 7,4 C 7,6 C 6,3 C 0,0 C 63 % 68 % 0 % 1023,9 hPa 0,0 l/m 9,8 km/h (2 Bft) W-SW 247 0 min 1,4 C 4,3 C 13,7 km/h (3 Bft)
29.01.2016 19:00 7,9 C 21,4 C 7,3 C 7,6 C 6,7 C 0,0 C 63 % 68 % 0 % 1023,9 hPa 0,0 l/m 8,0 km/h (2 Bft) W-NW 292 0 min 1,3 C 5,1 C 12,2 km/h (2 Bft)
29.01.2016 19:05 7,9 C 21,4 C 7,3 C 7,6 C 6,6 C 0,0 C 63 % 68 % 0 % 1023,9 hPa 0,0 l/m 8,2 km/h (2 Bft) O-SO 112 0 min 1,3 C 5,0 C 4,0 km/h (1 Bft)
29.01.2016 19:10 7,9 C 21,4 C 7,2 C 7,5 C 6,7 C 0,0 C 63 % 68 % 0 % 1023,9 hPa 0,0 l/m 7,2 km/h (2 Bft) S-SO 157 0 min 1,3 C 5,3 C 12,4 km/h (3 Bft)
29.01.2016 19:15 7,9 C 21,4 C 7,2 C 7,5 C 6,8 C 0,0 C 64 % 68 % 0 % 1023,9 hPa 0,0 l/m 6,6 km/h (2 Bft) N-NW 337 0 min 1,5 C 5,6 C 5,0 km/h (1 Bft)
29.01.2016 19:20 7,9 C 21,4 C 7,2 C 7,5 C 6,7 C 0,0 C 64 % 68 % 0 % 1023,9 hPa 0,0 l/m 6,8 km/h (2 Bft) W-SW 247 0 min 1,5 C 5,4 C 3,7 km/h (1 Bft)
29.01.2016 19:25 7,9 C 21,4 C 7,3 C 7,6 C 6,4 C 0,0 C 64 % 69 % 0 % 1023,9 hPa 0,0 l/m 7,7 km/h (2 Bft) SO 135 0 min 1,5 C 4,9 C 15,8 km/h (3 Bft)
29.01.2016 19:30 7,9 C 21,4 C 7,3 C 7,5 C 6,2 C 0,0 C 64 % 69 % 0 % 1023,7 hPa 0,0 l/m 8,7 km/h (2 Bft) W 270 0 min 1,5 C 4,4 C 14,8 km/h (3 Bft)
29.01.2016 19:35 7,8 C 21,4 C 7,2 C 7,4 C 6,1 C 0,0 C 64 % 69 % 0 % 1023,7 hPa 0,0 l/m 9,3 km/h (2 Bft) S-SW 202 0 min 1,4 C 4,1 C 16,6 km/h (3 Bft)
29.01.2016 19:40 7,7 C 21,4 C 7,1 C 7,3 C 6,0 C 0,0 C 64 % 70 % 0 % 1023,7 hPa 0,0 l/m 10,0 km/h (2 Bft) SO 135 0 min 1,3 C 3,9 C 13,5 km/h (3 Bft)
29.01.2016 19:45 7,7 C 21,4 C 7,1 C 7,3 C 5,8 C 0,0 C 64 % 70 % 0 % 1023,7 hPa 0,0 l/m 10,6 km/h (2 Bft) S 180 0 min 1,3 C 3,5 C 13,2 km/h (3 Bft)
29.01.2016 19:50 7,7 C 21,4 C 7,1 C 7,3 C 5,9 C 0,0 C 65 % 70 % 0 % 1023,9 hPa 0,0 l/m 10,1 km/h (2 Bft) SW 225 0 min 1,5 C 3,7 C 9,7 km/h (2 Bft)
29.01.2016 19:55 7,6 C 21,4 C 7,1 C 7,3 C 6,1 C 0,0 C 65 % 70 % 0 % 1023,9 hPa 0,0 l/m 9,3 km/h (2 Bft) W 270 0 min 1,5 C 4,1 C 15,8 km/h (3 Bft)
29.01.2016 20:00 7,6 C 21,4 C 7,0 C 7,3 C 5,9 C 0,0 C 65 % 70 % 0 % 1023,9 hPa 0,0 l/m 10,0 km/h (2 Bft) O-NO 67 0 min 1,5 C 3,7 C 20,0 km/h (4 Bft)
29.01.2016 20:05 7,6 C 21,4 C 7,1 C 7,2 C 6,0 C 0,0 C 65 % 70 % 0 % 1023,9 hPa 0,0 l/m 9,7 km/h (2 Bft) W 270 0 min 1,5 C 3,9 C 6,6 km/h (2 Bft)
29.01.2016 20:10 7,7 C 21,4 C 7,0 C 7,1 C 6,0 C 0,0 C 65 % 70 % 0 % 1023,8 hPa 0,0 l/m 8,9 km/h (2 Bft) W-SW 247 0 min 1,5 C 4,1 C 14,3 km/h (3 Bft)
29.01.2016 20:15 7,6 C 21,4 C 7,0 C 7,1 C 6,0 C 0,0 C 65 % 70 % 0 % 1023,8 hPa 0,0 l/m 8,9 km/h (2 Bft) W 270 0 min 1,5 C 4,1 C 16,6 km/h (3 Bft)
29.01.2016 20:20 7,6 C 21,4 C 6,9 C 7,1 C 6,0 C 0,0 C 65 % 71 % 0 % 1023,8 hPa 0,0 l/m 9,0 km/h (2 Bft) SW 225 0 min 1,5 C 4,1 C 6,3 km/h (2 Bft)
29.01.2016 20:25 7,6 C 21,4 C 6,9 C 7,1 C 6,2 C 0,0 C 65 % 71 % 0 % 1023,8 hPa 0,0 l/m 7,6 km/h (2 Bft) SW 225 0 min 1,5 C 4,6 C 19,0 km/h (3 Bft)
29.01.2016 20:30 7,5 C 21,5 C 6,8 C 7,1 C 6,3 C 0,0 C 65 % 70 % 0 % 1024,1 hPa 0,0 l/m 6,8 km/h (2 Bft) SO 135 0 min 1,4 C 5,0 C 8,7 km/h (2 Bft)
29.01.2016 20:35 7,5 C 21,5 C 6,9 C 7,1 C 6,2 C 0,0 C 65 % 71 % 0 % 1024,1 hPa 0,0 l/m 7,4 km/h (2 Bft) S-SO 157 0 min 1,4 C 4,7 C 6,9 km/h (2 Bft)
29.01.2016 20:40 7,5 C 21,5 C 6,9 C 7,1 C 6,2 C 0,0 C 65 % 71 % 0 % 1024,1 hPa 0,0 l/m 7,6 km/h (2 Bft) O-SO 112 0 min 1,4 C 4,6 C 6,1 km/h (2 Bft)
29.01.2016 20:45 7,5 C 21,5 C 6,8 C 7,1 C 6,4 C 0,0 C 65 % 70 % 0 % 1024,1 hPa 0,0 l/m 6,6 km/h (2 Bft) NW 315 0 min 1,4 C 5,2 C 4,7 km/h (1 Bft)
29.01.2016 20:50 7,5 C 21,5 C 6,9 C 7,1 C 6,4 C 0,0 C 65 % 71 % 0 % 1024,1 hPa 0,0 l/m 6,1 km/h (2 Bft) W-SW 247 0 min 1,4 C 5,3 C 9,3 km/h (2 Bft)
29.01.2016 20:55 7,4 C 21,5 C 6,8 C 7,1 C 6,4 C 0,0 C 65 % 70 % 0 % 1024,1 hPa 0,0 l/m 6,3 km/h (2 Bft) S 180 0 min 1,3 C 5,2 C 8,7 km/h (2 Bft)
29.01.2016 21:00 7,5 C 21,5 C 6,8 C 7,1 C 6,4 C 0,0 C 66 % 71 % 0 % 1024,1 hPa 0,0 l/m 6,1 km/h (2 Bft) SO 135 0 min 1,6 C 5,3 C 9,5 km/h (2 Bft)
29.01.2016 21:05 7,5 C 21,5 C 6,8 C 7,1 C 6,2 C 0,0 C 66 % 70 % 0 % 1024,1 hPa 0,0 l/m 6,3 km/h (2 Bft) SO 135 0 min 1,6 C 5,0 C 7,7 km/h (2 Bft)
29.01.2016 21:10 7,4 C 21,6 C 6,8 C 7,1 C 6,6 C 0,0 C 66 % 71 % 0 % 1024,3 hPa 0,0 l/m 5,3 km/h (1 Bft) SW 225 0 min 1,5 C 5,8 C 7,2 km/h (2 Bft)
29.01.2016 21:15 7,3 C 21,6 C 6,7 C 7,1 C 6,7 C 0,0 C 66 % 71 % 0 % 1024,3 hPa 0,0 l/m 5,0 km/h (1 Bft) W-SW 247 0 min 1,4 C 6,0 C 16,3 km/h (3 Bft)
29.01.2016 21:20 7,3 C 21,6 C 6,7 C 7,1 C 6,7 C 0,0 C 66 % 71 % 0 % 1024,3 hPa 0,0 l/m 5,0 km/h (1 Bft) W-SW 247 0 min 1,4 C 6,0 C 6,6 km/h (2 Bft)
29.01.2016 21:25 7,3 C 21,6 C 6,7 C 6,9 C 6,2 C 0,0 C 67 % 71 % 0 % 1024,3 hPa 0,0 l/m 6,6 km/h (2 Bft) W-SW 247 0 min 1,6 C 4,9 C 8,9 km/h (2 Bft)
29.01.2016 21:30 7,3 C 21,6 C 6,8 C 7,0 C 6,3 C 0,0 C 67 % 71 % 0 % 1024,1 hPa 0,0 l/m 6,0 km/h (2 Bft) SO 135 0 min 1,6 C 5,2 C 8,2 km/h (2 Bft)
29.01.2016 21:35 7,3 C 21,6 C 6,8 C 6,9 C 6,2 C 0,0 C 67 % 71 % 0 % 1024,1 hPa 0,0 l/m 6,6 km/h (2 Bft) S-SW 202 0 min 1,6 C 4,9 C 14,5 km/h (3 Bft)
29.01.2016 21:40 7,3 C 21,6 C 6,7 C 6,9 C 6,2 C 0,0 C 67 % 72 % 0 % 1024,1 hPa 0,0 l/m 6,6 km/h (2 Bft) W 270 0 min 1,6 C 4,9 C 8,2 km/h (2 Bft)
29.01.2016 21:45 7,2 C 21,6 C 6,7 C 6,9 C 6,2 C 0,0 C 67 % 72 % 0 % 1024,1 hPa 0,0 l/m 6,3 km/h (2 Bft) S 180 0 min 1,5 C 5,0 C 12,9 km/h (3 Bft)
29.01.2016 21:50 7,2 C 21,6 C 6,7 C 6,8 C 6,1 C 0,0 C 67 % 73 % 0 % 1024,4 hPa 0,0 l/m 6,6 km/h (2 Bft) W-SW 247 0 min 1,5 C 4,8 C 4,2 km/h (1 Bft)
29.01.2016 21:55 7,2 C 21,6 C 6,6 C 6,9 C 6,2 C 0,0 C 68 % 73 % 0 % 1024,4 hPa 0,0 l/m 6,3 km/h (2 Bft) SO 135 0 min 1,7 C 5,0 C 6,0 km/h (2 Bft)
29.01.2016 22:00 7,2 C 21,6 C 6,7 C 7,0 C 6,6 C 0,0 C 68 % 73 % 0 % 1024,4 hPa 0,0 l/m 5,0 km/h (1 Bft) W-NW 292 0 min 1,7 C 5,9 C 6,9 km/h (2 Bft)
29.01.2016 22:05 7,2 C 21,6 C 6,7 C 7,0 C 6,5 C 0,0 C 68 % 73 % 0 % 1024,4 hPa 0,0 l/m 5,3 km/h (1 Bft) W-SW 247 0 min 1,7 C 5,7 C 7,2 km/h (2 Bft)
29.01.2016 22:10 7,2 C 21,6 C 6,5 C 7,0 C 6,7 C 0,0 C 68 % 73 % 0 % 1024,4 hPa 0,0 l/m 4,5 km/h (1 Bft) SW 225 0 min 1,7 C 6,7 C 3,1 km/h (1 Bft)
29.01.2016 22:15 7,2 C 21,6 C 6,5 C 7,0 C 6,6 C 0,0 C 68 % 73 % 0 % 1024,4 hPa 0,0 l/m 4,3 km/h (1 Bft) SW 225 0 min 1,7 C 6,6 C 10,6 km/h (2 Bft)
29.01.2016 22:20 7,2 C 21,6 C 6,4 C 6,9 C 6,3 C 0,0 C 68 % 73 % 0 % 1024,4 hPa 0,0 l/m 5,0 km/h (1 Bft) S-SO 157 0 min 1,7 C 5,6 C 5,3 km/h (1 Bft)
29.01.2016 22:25 7,1 C 21,6 C 6,4 C 6,8 C 6,1 C 0,0 C 68 % 74 % 0 % 1024,4 hPa 0,0 l/m 5,6 km/h (1 Bft) NW 315 0 min 1,6 C 5,1 C 4,2 km/h (1 Bft)
29.01.2016 22:30 7,1 C 21,6 C 6,5 C 6,8 C 6,3 C 0,0 C 68 % 73 % 0 % 1024,4 hPa 0,0 l/m 5,1 km/h (1 Bft) NW 315 0 min 1,6 C 5,5 C 10,0 km/h (2 Bft)
29.01.2016 22:35 7,1 C 21,6 C 6,4 C 6,8 C 6,2 C 0,0 C 68 % 74 % 0 % 1024,4 hPa 0,0 l/m 5,3 km/h (1 Bft) S 180 0 min 1,6 C 5,3 C 5,0 km/h (1 Bft)
29.01.2016 22:40 7,1 C 21,6 C 6,4 C 6,8 C 6,2 C 0,0 C 69 % 74 % 0 % 1024,4 hPa 0,0 l/m 5,1 km/h (1 Bft) W-SW 247 0 min 1,8 C 5,4 C 14,5 km/h (3 Bft)
29.01.2016 22:45 7,0 C 21,6 C 6,4 C 6,7 C 6,2 C 0,0 C 69 % 74 % 0 % 1024,4 hPa 0,0 l/m 5,1 km/h (1 Bft) W-SW 247 0 min 1,7 C 5,4 C 6,1 km/h (2 Bft)
29.01.2016 22:50 7,0 C 21,6 C 6,5 C 6,7 C 6,2 C 0,0 C 69 % 74 % 0 % 1024,4 hPa 0,0 l/m 5,1 km/h (1 Bft) W-SW 247 0 min 1,7 C 5,4 C 10,9 km/h (2 Bft)
29.01.2016 22:55 7,1 C 21,6 C 6,4 C 6,8 C 6,1 C 0,0 C 69 % 74 % 0 % 1024,4 hPa 0,0 l/m 5,1 km/h (1 Bft) SW 225 0 min 1,8 C 5,3 C 3,4 km/h (1 Bft)
29.01.2016 23:00 7,0 C 21,6 C 6,4 C 6,7 C 6,2 C 0,0 C 70 % 74 % 0 % 1024,4 hPa 0,0 l/m 5,1 km/h (1 Bft) W-NW 292 0 min 1,9 C 5,4 C 3,5 km/h (1 Bft)
29.01.2016 23:05 7,1 C 21,6 C 6,4 C 6,8 C 6,3 C 0,0 C 70 % 74 % 0 % 1024,4 hPa 0,0 l/m 4,7 km/h (1 Bft) W-SW 247 0 min 2,0 C 5,7 C 4,7 km/h (1 Bft)
29.01.2016 23:10 7,1 C 21,6 C 6,5 C 6,9 C 6,4 C 0,0 C 70 % 74 % 0 % 1024,4 hPa 0,0 l/m 4,8 km/h (1 Bft) S-SO 157 0 min 2,0 C 5,7 C 5,5 km/h (1 Bft)
29.01.2016 23:15 7,1 C 21,6 C 6,5 C 6,9 C 6,4 C 0,0 C 70 % 74 % 0 % 1024,4 hPa 0,0 l/m 4,7 km/h (1 Bft) S-SO 157 0 min 2,0 C 5,8 C 8,0 km/h (2 Bft)
29.01.2016 23:20 7,1 C 21,6 C 6,5 C 6,9 C 6,4 C 0,0 C 70 % 75 % 0 % 1024,4 hPa 0,0 l/m 5,0 km/h (1 Bft) S 180 0 min 2,0 C 5,7 C 6,4 km/h (2 Bft)
29.01.2016 23:25 7,1 C 21,6 C 6,5 C 6,8 C 6,3 C 0,0 C 70 % 75 % 0 % 1024,4 hPa 0,0 l/m 5,3 km/h (1 Bft) O-NO 67 0 min 2,0 C 5,5 C 6,1 km/h (2 Bft)
29.01.2016 23:30 7,1 C 21,6 C 6,5 C 6,7 C 5,9 C 0,0 C 70 % 75 % 0 % 1024,2 hPa 0,0 l/m 6,8 km/h (2 Bft) W-SW 247 0 min 2,0 C 4,5 C 11,6 km/h (2 Bft)
29.01.2016 23:35 7,1 C 21,6 C 6,5 C 6,7 C 6,0 C 0,0 C 70 % 75 % 0 % 1024,2 hPa 0,0 l/m 6,4 km/h (2 Bft) W-SW 247 0 min 2,0 C 4,7 C 3,2 km/h (1 Bft)
29.01.2016 23:40 7,0 C 21,6 C 6,4 C 6,7 C 6,1 C 0,0 C 71 % 75 % 0 % 1024,2 hPa 0,0 l/m 5,6 km/h (1 Bft) SW 225 0 min 2,1 C 5,1 C 9,3 km/h (2 Bft)
29.01.2016 23:45 7,0 C 21,6 C 6,4 C 6,7 C 6,2 C 0,0 C 71 % 75 % 0 % 1024,2 hPa 0,0 l/m 5,3 km/h (1 Bft) SW 225 0 min 2,1 C 5,3 C 7,4 km/h (2 Bft)
29.01.2016 23:50 7,1 C 21,6 C 6,4 C 6,9 C 6,4 C 0,0 C 71 % 75 % 0 % 1023,4 hPa 0,0 l/m 4,8 km/h (1 Bft) O-NO 67 0 min 2,2 C 5,7 C 8,0 km/h (2 Bft)
29.01.2016 23:55 6,9 C 21,6 C 6,3 C 6,7 C 6,2 C 0,0 C 71 % 75 % 0 % 1023,4 hPa 0,0 l/m 4,8 km/h (1 Bft) S 180 0 min 2,0 C 5,5 C 10,5 km/h (2 Bft)
_ Min-Zeit 00:00 12:10 03:25 00:00 00:00 01:50 15:00 14:50 00:00 18:10 - 00:00 - - - 00:05 07:50 00:00
Minimum _ -1,3 C 20,9 C -0,5 C -1,0 C -1,0 C 0,0 C 56 % 62 % 0 % 1023,1 hPa - 0,0 km/h (0 Bft) - - - -3,6 C -1,6 C 0,0 km/h (0 Bft)
_ Max-Zeit 14:45 00:00 14:00 14:10 14:10 14:10 00:30 03:50 14:10 00:00 00:00 14:40 - - 14:05 23:50 14:10 14:45
Maximum _ 9,5 C 22,3 C 9,1 C 13,0 C 13,0 C 3,9 C 86 % 91 % 100 % 1027,1 hPa 0,0 l/m 13,8 km/h
SO (3 Bft)
- - 5 min 2,2 C 13,0 C 37,0 km/h
N (5 Bft)
Durchschnitt _ 4,8 C 21,4 C 4,7 C 5,0 C 4,6 C 0,3 C 73 % 78 % 6 % 1025,1 hPa #0,0 l/m 5,4 km/h (1 Bft) W-SW - #20 min. 0,2 C 3,7 C 8,0 km/h (2 Bft)
2016 www.wetterstation-wechselburg.de